Time;durP1;ratioP1;P1;durP2;ratioP2;P2;SDS_P1;SDS_P2;PMS_P1;PMS_P2;Temp;Humidity;BMP_temperature;BMP_pressure;BME280_temperature;BME280_humidity;BME280_pressure;Samples;Min_cycle;Max_cycle;Signal;HPM_P1;HPM_P2
2023/06/13 00:01:18;;;;;;;9.90;4.28;;;18.10;63.50;;;;;;5062861;28;20535;-64
2023/06/13 00:03:47;;;;;;;10.50;3.83;;;18.10;63.20;;;;;;5046023;28;20051;-64
2023/06/13 00:06:15;;;;;;;8.10;3.72;;;18.10;63.20;;;;;;5044314;28;20029;-65
2023/06/13 00:08:42;;;;;;;16.48;4.88;;;18.10;63.30;;;;;;5045024;28;20068;-61
2023/06/13 00:11:07;;;;;;;12.80;4.05;;;18.10;63.30;;;;;;5064787;28;20036;-64
2023/06/13 00:13:34;;;;;;;8.00;3.78;;;18.00;63.40;;;;;;5083247;28;20453;-65
2023/06/13 00:16:00;;;;;;;10.05;4.18;;;17.90;63.50;;;;;;5081228;28;20250;-63
2023/06/13 00:18:30;;;;;;;8.68;3.67;;;17.90;63.50;;;;;;5066312;28;20400;-65
2023/06/13 00:20:58;;;;;;;9.70;3.85;;;17.90;63.60;;;;;;5059628;28;20036;-63
2023/06/13 00:23:25;;;;;;;12.18;3.92;;;17.90;63.60;;;;;;5062218;28;20127;-62
2023/06/13 00:25:51;;;;;;;9.52;3.65;;;17.90;63.70;;;;;;5049431;28;20040;-65
2023/06/13 00:28:17;;;;;;;8.07;3.88;;;17.80;63.70;;;;;;5049566;28;20036;-64
2023/06/13 00:30:43;;;;;;;9.18;3.63;;;17.80;63.70;;;;;;5065907;28;20610;-65
2023/06/13 00:33:11;;;;;;;12.05;4.18;;;17.70;63.80;;;;;;5049858;28;20283;-65
2023/06/13 00:35:37;;;;;;;7.25;4.00;;;17.80;63.90;;;;;;5066835;28;20171;-64
2023/06/13 00:38:06;;;;;;;7.57;4.28;;;17.70;63.90;;;;;;5068724;28;20135;-67
2023/06/13 00:40:32;;;;;;;10.50;4.35;;;17.70;64.00;;;;;;5049562;28;20051;-65
2023/06/13 00:42:58;;;;;;;12.35;4.00;;;17.60;64.00;;;;;;5066062;28;20032;-65
2023/06/13 00:45:26;;;;;;;10.00;4.25;;;17.60;64.00;;;;;;5075991;28;20111;-64
2023/06/13 00:48:03;;;;;;;10.43;4.22;;;17.60;64.10;;;;;;5053924;28;20439;-62
2023/06/13 00:50:33;;;;;;;11.25;4.20;;;17.60;64.20;;;;;;5047942;28;20049;-65
2023/06/13 00:53:09;;;;;;;12.75;4.80;;;17.50;64.20;;;;;;5064219;28;20041;-64
2023/06/13 00:55:36;;;;;;;10.75;4.85;;;17.50;64.40;;;;;;5056245;28;20083;-64
2023/06/13 00:58:05;;;;;;;11.15;4.57;;;17.40;64.50;;;;;;5085980;28;20047;-63
2023/06/13 01:00:35;;;;;;;10.35;4.38;;;17.40;64.60;;;;;;5081200;28;20534;-66
2023/06/13 01:03:06;;;;;;;10.60;4.13;;;17.30;64.50;;;;;;5065260;28;20055;-62
2023/06/13 01:05:32;;;;;;;15.77;4.90;;;17.30;64.50;;;;;;5073695;28;20086;-64
2023/06/13 01:07:59;;;;;;;13.68;4.55;;;17.30;64.60;;;;;;5064155;28;20044;-64
2023/06/13 01:10:27;;;;;;;14.98;4.93;;;17.20;64.70;;;;;;5065618;28;20556;-62
2023/06/13 01:13:00;;;;;;;10.80;4.97;;;17.20;64.90;;;;;;5050064;28;20045;-63
2023/06/13 01:15:32;;;;;;;12.13;4.63;;;17.20;64.90;;;;;;5065278;28;20036;-65
2023/06/13 01:18:00;;;;;;;11.13;4.50;;;17.10;64.90;;;;;;5068302;28;20076;-65
2023/06/13 01:20:33;;;;;;;14.93;5.13;;;17.10;65.10;;;;;;5077875;28;20028;-63
2023/06/13 01:23:28;;;;;;;12.90;5.43;;;17.00;65.30;;;;;;5047654;28;20079;-65
2023/06/13 01:26:06;;;;;;;15.35;5.03;;;16.90;65.40;;;;;;5049138;28;20462;-66
2023/06/13 01:28:33;;;;;;;11.10;4.70;;;16.90;65.40;;;;;;5050223;28;20253;-67
2023/06/13 01:31:02;;;;;;;9.95;5.07;;;16.90;65.30;;;;;;5052157;28;20045;-68
2023/06/13 01:33:29;;;;;;;11.77;5.05;;;16.90;66.10;;;;;;5064751;28;20036;-66
2023/06/13 01:35:56;;;;;;;10.35;4.25;;;16.90;65.90;;;;;;5063785;28;20641;-68
2023/06/13 01:38:22;;;;;;;9.52;4.32;;;16.90;66.20;;;;;;5047196;28;20072;-67
2023/06/13 01:40:48;;;;;;;9.63;4.93;;;16.90;66.20;;;;;;5048124;28;20067;-68
2023/06/13 01:43:14;;;;;;;10.25;4.68;;;16.80;66.20;;;;;;5064797;28;20040;-65
2023/06/13 01:45:41;;;;;;;11.75;5.18;;;16.80;66.40;;;;;;5071716;28;20053;-64
2023/06/13 01:48:42;;;;;;;9.63;4.55;;;16.70;66.00;;;;;;5081132;28;20097;-66
2023/06/13 01:51:22;;;;;;;16.77;5.13;;;16.70;65.70;;;;;;5063133;28;20086;-66
2023/06/13 01:54:04;;;;;;;13.85;5.25;;;16.70;65.70;;;;;;5047600;28;20503;-65
2023/06/13 01:56:32;;;;;;;13.10;4.93;;;16.70;65.70;;;;;;5065069;28;20040;-68
2023/06/13 01:59:03;;;;;;;11.38;4.65;;;16.60;65.60;;;;;;5054886;28;20117;-66
2023/06/13 02:01:34;;;;;;;11.00;4.95;;;16.60;65.60;;;;;;5047691;28;20669;-63
2023/06/13 02:04:04;;;;;;;12.60;5.05;;;16.60;65.60;;;;;;5047852;28;20035;-66
2023/06/13 02:06:30;;;;;;;9.48;4.68;;;16.50;65.60;;;;;;5046277;28;20036;-64
2023/06/13 02:08:56;;;;;;;11.57;4.90;;;16.50;65.60;;;;;;5064060;28;20416;-64
2023/06/13 02:11:22;;;;;;;9.52;4.68;;;16.50;65.60;;;;;;5047876;28;20048;-67
2023/06/13 02:13:49;;;;;;;15.38;4.90;;;16.50;65.80;;;;;;5064379;28;20709;-66
2023/06/13 02:16:17;;;;;;;13.30;4.95;;;16.40;65.90;;;;;;5047957;28;20616;-65
2023/06/13 02:18:46;;;;;;;9.35;4.75;;;16.30;66.00;;;;;;5047613;28;20167;-65
2023/06/13 02:21:12;;;;;;;10.30;4.72;;;16.20;66.30;;;;;;5062680;28;20141;-65
2023/06/13 02:23:38;;;;;;;10.13;5.03;;;16.10;66.50;;;;;;5063193;28;20099;-65
2023/06/13 02:26:06;;;;;;;12.15;5.28;;;16.00;66.60;;;;;;5047463;28;20044;-63
2023/06/13 02:28:32;;;;;;;9.32;4.82;;;16.00;66.90;;;;;;5046955;28;20051;-64
2023/06/13 02:30:58;;;;;;;14.18;5.00;;;15.90;67.00;;;;;;5052208;28;20930;-64
2023/06/13 02:33:24;;;;;;;9.15;4.88;;;15.80;67.10;;;;;;5047044;28;20052;-64
2023/06/13 02:35:50;;;;;;;14.60;5.55;;;15.70;67.30;;;;;;5046254;28;20500;-64
2023/06/13 02:38:16;;;;;;;13.93;5.18;;;15.70;67.50;;;;;;5062903;28;20051;-64
2023/06/13 02:40:42;;;;;;;13.65;5.50;;;15.60;67.50;;;;;;5063623;28;20048;-62
2023/06/13 02:43:08;;;;;;;13.50;5.45;;;15.60;67.60;;;;;;5064213;28;20076;-65
2023/06/13 02:45:34;;;;;;;12.77;5.05;;;15.60;67.80;;;;;;5047618;28;20044;-64
2023/06/13 02:48:00;;;;;;;9.98;5.10;;;15.50;67.80;;;;;;5061716;28;20036;-65
2023/06/13 02:50:26;;;;;;;10.25;5.30;;;15.50;68.00;;;;;;5066237;28;20036;-65
2023/06/13 02:52:51;;;;;;;11.40;5.45;;;15.50;68.10;;;;;;5051790;28;20514;-65
2023/06/13 02:55:18;;;;;;;13.48;5.32;;;15.40;68.10;;;;;;5063964;28;20036;-64
2023/06/13 02:57:44;;;;;;;8.90;5.07;;;15.40;68.30;;;;;;5047189;28;20518;-68
2023/06/13 03:00:15;;;;;;;22.85;5.88;;;15.30;68.20;;;;;;5063293;28;20060;-67
2023/06/13 03:02:43;;;;;;;14.15;5.63;;;15.30;68.40;;;;;;5046854;28;20500;-65
2023/06/13 03:05:10;;;;;;;13.25;5.80;;;15.20;68.40;;;;;;5064178;28;20739;-65
2023/06/13 03:07:42;;;;;;;14.00;5.00;;;15.20;68.50;;;;;;5051049;28;20040;-65
2023/06/13 03:10:09;;;;;;;13.95;5.93;;;15.20;68.60;;;;;;5046647;28;20040;-64
2023/06/13 03:12:35;;;;;;;13.93;5.60;;;15.20;68.70;;;;;;5046907;28;20047;-64
2023/06/13 03:15:01;;;;;;;12.40;5.55;;;15.20;68.70;;;;;;5069684;28;20040;-65
2023/06/13 03:17:27;;;;;;;12.57;5.00;;;15.20;68.70;;;;;;5083574;28;20047;-63
2023/06/13 03:19:53;;;;;;;10.20;5.65;;;15.20;68.70;;;;;;5066929;28;20051;-66
2023/06/13 03:22:19;;;;;;;10.50;5.88;;;15.10;68.60;;;;;;5054968;28;20036;-65
2023/06/13 03:24:46;;;;;;;11.65;5.47;;;15.20;68.70;;;;;;5063493;28;20049;-67
2023/06/13 03:27:12;;;;;;;11.45;5.50;;;15.10;68.60;;;;;;5063557;28;20131;-63
2023/06/13 03:29:40;;;;;;;10.40;5.28;;;15.10;68.60;;;;;;5046303;28;20695;-66
2023/06/13 03:32:07;;;;;;;11.88;5.78;;;15.10;68.80;;;;;;5046277;28;20387;-63
2023/06/13 03:34:37;;;;;;;13.82;5.53;;;15.10;68.90;;;;;;5047064;28;20059;-63
2023/06/13 03:37:05;;;;;;;15.68;5.60;;;15.10;69.00;;;;;;5060921;28;20224;-63
2023/06/13 03:39:31;;;;;;;11.02;5.60;;;15.10;68.90;;;;;;5046589;28;20135;-66
2023/06/13 03:41:58;;;;;;;10.95;5.65;;;15.20;68.90;;;;;;5063517;28;20049;-64
2023/06/13 03:44:23;;;;;;;11.45;5.53;;;15.20;68.90;;;;;;5064112;28;20045;-65
2023/06/13 03:46:51;;;;;;;9.38;5.18;;;15.20;68.80;;;;;;5076397;28;20451;-65
2023/06/13 03:49:18;;;;;;;10.43;5.65;;;15.30;68.70;;;;;;5046512;28;20190;-66
2023/06/13 03:51:44;;;;;;;31.40;6.53;;;15.30;68.80;;;;;;5044483;28;20518;-64
2023/06/13 03:54:10;;;;;;;12.57;6.10;;;15.30;68.80;;;;;;5062948;28;20040;-63
2023/06/13 03:56:36;;;;;;;10.20;5.53;;;15.30;68.90;;;;;;5063189;28;20059;-66
2023/06/13 03:59:02;;;;;;;10.13;5.82;;;15.40;69.00;;;;;;5064423;28;20048;-64
2023/06/13 04:01:28;;;;;;;9.90;5.25;;;15.40;68.90;;;;;;5049914;28;20107;-62
2023/06/13 04:03:55;;;;;;;10.57;5.63;;;15.50;68.80;;;;;;5066560;28;20036;-64
2023/06/13 04:06:21;;;;;;;10.15;5.30;;;15.50;68.70;;;;;;5049034;28;20467;-63
2023/06/13 04:08:46;;;;;;;10.43;5.63;;;15.60;68.90;;;;;;5065979;28;20040;-61
2023/06/13 04:11:12;;;;;;;14.30;5.88;;;15.60;68.60;;;;;;5050072;28;20054;-63
2023/06/13 04:13:38;;;;;;;14.15;5.05;;;15.70;68.60;;;;;;5066741;28;20055;-65
2023/06/13 04:16:04;;;;;;;11.27;5.25;;;15.80;68.60;;;;;;5049852;28;20454;-63
2023/06/13 04:18:30;;;;;;;14.73;6.32;;;15.90;68.50;;;;;;5049875;28;20625;-66
2023/06/13 04:20:57;;;;;;;10.73;5.55;;;16.00;68.10;;;;;;5048579;28;20044;-65
2023/06/13 04:23:25;;;;;;;10.65;5.53;;;16.20;67.90;;;;;;5049374;28;20511;-64
2023/06/13 04:25:52;;;;;;;12.57;5.88;;;16.30;67.80;;;;;;5049798;28;20127;-63
2023/06/13 04:28:18;;;;;;;9.60;5.95;;;16.40;67.60;;;;;;5049709;28;20043;-64
2023/06/13 04:30:47;;;;;;;11.32;6.18;;;16.50;67.70;;;;;;5066324;28;20661;-64
2023/06/13 04:33:17;;;;;;;11.95;6.10;;;16.60;67.60;;;;;;5066459;28;20040;-63
2023/06/13 04:35:48;;;;;;;9.77;5.28;;;16.60;67.50;;;;;;5048534;28;20075;-65
2023/06/13 04:38:21;;;;;;;10.32;5.53;;;16.70;67.40;;;;;;5048442;28;20551;-66
2023/06/13 04:40:49;;;;;;;11.60;5.05;;;16.70;67.40;;;;;;5066126;28;20060;-63
2023/06/13 04:43:15;;;;;;;12.55;5.32;;;16.80;67.40;;;;;;5065383;28;20047;-65
2023/06/13 04:45:43;;;;;;;13.70;5.70;;;16.80;67.30;;;;;;5064936;28;20172;-66
2023/06/13 04:48:10;;;;;;;10.32;5.32;;;16.90;67.30;;;;;;5082597;28;20044;-68
2023/06/13 04:50:40;;;;;;;10.45;5.25;;;17.00;67.20;;;;;;5068384;28;20051;-64
2023/06/13 04:53:08;;;;;;;10.98;4.85;;;17.00;67.20;;;;;;5052397;28;20055;-63
2023/06/13 04:55:40;;;;;;;12.73;5.60;;;17.00;67.10;;;;;;5066147;28;20538;-64
2023/06/13 04:58:07;;;;;;;10.00;5.18;;;16.90;66.90;;;;;;5049625;28;20047;-62
2023/06/13 05:00:32;;;;;;;11.02;4.95;;;16.90;67.20;;;;;;5049027;28;20052;-63
2023/06/13 05:03:00;;;;;;;9.18;5.25;;;16.90;67.20;;;;;;5049350;28;20501;-63
2023/06/13 05:05:26;;;;;;;9.52;5.25;;;17.00;67.10;;;;;;5048837;28;20040;-65
2023/06/13 05:07:57;;;;;;;9.05;5.07;;;17.20;66.90;;;;;;5060263;28;20098;-62
2023/06/13 05:10:24;;;;;;;10.02;5.20;;;17.40;66.60;;;;;;5085026;28;20090;-64
2023/06/13 05:12:50;;;;;;;11.63;4.95;;;17.30;66.30;;;;;;5069170;28;20189;-63
2023/06/13 05:15:18;;;;;;;9.38;5.03;;;17.30;66.20;;;;;;5076632;28;20342;-64
2023/06/13 05:17:48;;;;;;;10.20;4.70;;;17.20;66.20;;;;;;5048808;28;20044;-62
2023/06/13 05:20:14;;;;;;;10.68;4.68;;;17.20;66.40;;;;;;5064556;28;20135;-66
2023/06/13 05:22:41;;;;;;;19.15;4.93;;;17.60;66.40;;;;;;5063016;28;20573;-62
2023/06/13 05:25:11;;;;;;;14.25;5.30;;;17.90;66.20;;;;;;5049067;28;20124;-62
2023/06/13 05:27:38;;;;;;;11.55;5.18;;;18.30;65.70;;;;;;5048402;28;20090;-63
2023/06/13 05:30:08;;;;;;;10.93;4.10;;;19.00;65.40;;;;;;5064727;28;20498;-63
2023/06/13 05:32:34;;;;;;;10.05;4.78;;;19.50;64.80;;;;;;5048406;28;20845;-63
2023/06/13 05:35:00;;;;;;;11.85;4.13;;;19.30;64.00;;;;;;5048718;28;20036;-64
2023/06/13 05:37:28;;;;;;;8.35;4.22;;;19.00;63.50;;;;;;5045952;28;20684;-66
2023/06/13 05:39:54;;;;;;;8.70;4.38;;;18.90;63.40;;;;;;5047841;28;20040;-65
2023/06/13 05:42:19;;;;;;;9.00;4.82;;;18.70;63.20;;;;;;5064842;28;20056;-64
2023/06/13 05:44:45;;;;;;;9.38;4.30;;;18.60;63.30;;;;;;5048635;28;20109;-67
2023/06/13 05:47:11;;;;;;;9.52;4.43;;;18.60;63.10;;;;;;5082754;28;20260;-64
2023/06/13 05:49:36;;;;;;;9.30;4.18;;;18.50;63.10;;;;;;5072664;28;20049;-65
2023/06/13 05:52:02;;;;;;;12.07;4.50;;;18.50;63.30;;;;;;5062490;28;20173;-63
2023/06/13 05:54:28;;;;;;;9.20;4.25;;;18.60;63.40;;;;;;5065379;28;20131;-68
2023/06/13 05:56:54;;;;;;;10.70;4.15;;;18.80;63.30;;;;;;5047829;28;20169;-65
2023/06/13 05:59:19;;;;;;;8.02;3.67;;;18.90;62.90;;;;;;5063822;28;20099;-66
2023/06/13 06:01:46;;;;;;;8.30;3.92;;;19.10;62.30;;;;;;5066453;28;20459;-66
2023/06/13 06:04:12;;;;;;;8.85;4.07;;;19.30;62.50;;;;;;5084006;28;20205;-63
2023/06/13 06:06:37;;;;;;;10.32;3.38;;;19.60;62.60;;;;;;5062634;28;20450;-67
2023/06/13 06:09:04;;;;;;;9.55;3.40;;;19.60;61.80;;;;;;5084482;28;20032;-65
2023/06/13 06:11:33;;;;;;;10.90;4.30;;;19.60;62.10;;;;;;5086615;28;20044;-68
2023/06/13 06:13:59;;;;;;;9.57;3.72;;;19.50;61.60;;;;;;5068013;28;20048;-68
2023/06/13 06:16:25;;;;;;;12.70;3.83;;;19.40;60.80;;;;;;5068278;28;20040;-67
2023/06/13 06:18:51;;;;;;;11.93;3.90;;;19.40;60.60;;;;;;5066682;28;20039;-70
2023/06/13 06:21:16;;;;;;;7.78;3.50;;;19.40;60.70;;;;;;5079378;28;20056;-68
2023/06/13 06:23:42;;;;;;;12.90;3.90;;;19.40;60.50;;;;;;5081182;28;20028;-69
2023/06/13 06:26:09;;;;;;;10.80;3.47;;;19.50;60.50;;;;;;5084584;28;20089;-70
2023/06/13 06:28:35;;;;;;;8.82;3.55;;;19.50;60.00;;;;;;5064989;28;20037;-72
2023/06/13 06:31:01;;;;;;;8.18;3.00;;;19.50;59.40;;;;;;5063637;28;20101;-70
2023/06/13 06:33:27;;;;;;;9.10;3.55;;;19.60;59.20;;;;;;5063660;28;20076;-64
2023/06/13 06:35:53;;;;;;;7.50;3.88;;;19.60;58.60;;;;;;5046446;28;20071;-68
2023/06/13 06:38:19;;;;;;;9.35;3.65;;;19.70;59.30;;;;;;5062539;28;20531;-70
2023/06/13 06:40:44;;;;;;;9.60;3.60;;;19.70;59.30;;;;;;5063661;28;20049;-73
2023/06/13 06:43:10;;;;;;;12.30;3.58;;;19.90;60.10;;;;;;5064273;28;20036;-70
2023/06/13 06:45:35;;;;;;;11.80;3.85;;;20.10;59.80;;;;;;5073501;28;20048;-70
2023/06/13 06:48:01;;;;;;;10.43;3.70;;;20.10;59.10;;;;;;5062536;28;20063;-68
2023/06/13 06:50:27;;;;;;;13.18;3.40;;;20.40;59.70;;;;;;5082985;28;20487;-69
2023/06/13 06:52:53;;;;;;;9.32;3.33;;;20.50;59.60;;;;;;5050764;28;20075;-66
2023/06/13 06:55:19;;;;;;;17.58;3.75;;;20.60;59.50;;;;;;5063868;28;20048;-65
2023/06/13 06:57:44;;;;;;;8.80;3.35;;;20.70;59.20;;;;;;5063829;28;20677;-69
2023/06/13 07:00:14;;;;;;;10.63;3.58;;;20.80;59.10;;;;;;5063252;28;20140;-66
2023/06/13 07:02:40;;;;;;;11.00;3.53;;;20.70;58.60;;;;;;5046676;28;20082;-66
2023/06/13 07:05:06;;;;;;;8.60;3.17;;;20.80;59.20;;;;;;5064034;28;20537;-69
2023/06/13 07:07:35;;;;;;;7.47;3.05;;;21.00;59.50;;;;;;5077756;28;20062;-66
2023/06/13 07:10:04;;;;;;;9.75;3.65;;;21.10;59.70;;;;;;5063261;28;20033;-68
2023/06/13 07:12:32;;;;;;;9.18;3.25;;;21.00;58.80;;;;;;5063649;28;20519;-70
2023/06/13 07:14:58;;;;;;;9.88;3.20;;;21.10;59.00;;;;;;5063420;28;20062;-68
2023/06/13 07:17:24;;;;;;;9.43;3.55;;;21.10;57.80;;;;;;5062879;28;20564;-67
2023/06/13 07:19:49;;;;;;;10.23;3.13;;;21.10;58.20;;;;;;5063494;28;20136;-69
2023/06/13 07:22:15;;;;;;;6.93;3.10;;;21.20;57.80;;;;;;5060926;28;20451;-70
2023/06/13 07:24:41;;;;;;;16.13;3.05;;;21.30;57.50;;;;;;5063903;28;20072;-72
2023/06/13 07:27:07;;;;;;;7.20;2.92;;;21.30;56.10;;;;;;5063260;28;20044;-69
2023/06/13 07:29:33;;;;;;;8.23;3.15;;;21.40;55.80;;;;;;5063181;28;20094;-67
2023/06/13 07:32:01;;;;;;;5.68;2.65;;;21.40;55.50;;;;;;5062990;28;20040;-70
2023/06/13 07:34:27;;;;;;;9.60;2.80;;;21.40;54.40;;;;;;5050796;28;20044;-72
2023/06/13 07:36:54;;;;;;;7.50;2.95;;;21.50;54.70;;;;;;5064583;28;20085;-69
2023/06/13 07:39:20;;;;;;;6.40;2.63;;;21.60;54.80;;;;;;5050311;28;20040;-66
2023/06/13 07:41:48;;;;;;;9.18;2.63;;;21.80;54.70;;;;;;5067230;28;20048;-69
2023/06/13 07:44:14;;;;;;;8.32;3.00;;;22.00;54.90;;;;;;5067253;28;20056;-66
2023/06/13 07:46:40;;;;;;;11.15;2.78;;;22.10;55.10;;;;;;5049828;28;20052;-65
2023/06/13 07:49:05;;;;;;;8.50;2.80;;;22.30;55.00;;;;;;5066655;28;20032;-67
2023/06/13 07:51:32;;;;;;;9.40;2.83;;;22.40;55.50;;;;;;5065992;28;20514;-66
2023/06/13 07:53:58;;;;;;;7.45;2.75;;;22.40;53.70;;;;;;5066213;28;20051;-69
2023/06/13 07:56:24;;;;;;;11.60;2.78;;;22.40;52.50;;;;;;5066727;28;20048;-68
2023/06/13 07:58:49;;;;;;;8.07;2.72;;;22.40;52.50;;;;;;5066133;28;20507;-66
2023/06/13 08:01:15;;;;;;;9.93;2.90;;;22.50;52.00;;;;;;5066495;28;20072;-71
2023/06/13 08:03:43;;;;;;;8.07;2.90;;;22.60;52.30;;;;;;5066844;28;20047;-69
2023/06/13 08:06:09;;;;;;;7.38;3.25;;;22.60;52.00;;;;;;5065286;28;20040;-65
2023/06/13 08:08:34;;;;;;;5.95;2.90;;;22.70;52.10;;;;;;5065290;28;20111;-67
2023/06/13 08:11:00;;;;;;;10.35;2.88;;;22.70;52.00;;;;;;5067219;28;20714;-68
2023/06/13 08:13:26;;;;;;;7.60;3.03;;;22.70;52.80;;;;;;5067031;28;20048;-67
2023/06/13 08:15:52;;;;;;;8.30;2.92;;;22.70;52.90;;;;;;5066535;28;20048;-64
2023/06/13 08:18:17;;;;;;;8.98;3.10;;;22.80;53.40;;;;;;5065969;28;20047;-66
2023/06/13 08:20:47;;;;;;;12.93;3.45;;;22.90;53.60;;;;;;5065194;28;20151;-71
2023/06/13 08:23:14;;;;;;;8.90;3.08;;;22.90;53.40;;;;;;5064886;28;20041;-64
2023/06/13 08:25:41;;;;;;;10.93;3.47;;;23.00;53.90;;;;;;5066244;28;20427;-65
2023/06/13 08:28:07;;;;;;;9.60;3.15;;;23.10;54.10;;;;;;5049635;28;20067;-68
2023/06/13 08:30:33;;;;;;;9.55;3.22;;;23.20;54.10;;;;;;5066794;28;20044;-68
2023/06/13 08:33:01;;;;;;;7.80;3.22;;;23.40;53.90;;;;;;5083155;28;20054;-68
2023/06/13 08:35:27;;;;;;;9.45;3.40;;;23.40;53.80;;;;;;5066411;28;20055;-66
2023/06/13 08:37:52;;;;;;;6.32;3.28;;;23.50;53.70;;;;;;5048638;28;20519;-66
2023/06/13 08:40:19;;;;;;;6.80;3.25;;;23.50;53.20;;;;;;5066233;28;20079;-71
2023/06/13 08:42:46;;;;;;;6.72;3.55;;;23.60;53.10;;;;;;5051961;28;20036;-69
2023/06/13 08:45:12;;;;;;;7.43;3.28;;;23.50;52.60;;;;;;5065046;28;20478;-67
2023/06/13 08:47:39;;;;;;;12.05;3.45;;;23.50;53.00;;;;;;5069034;28;20507;-65
2023/06/13 08:50:08;;;;;;;7.30;3.17;;;23.50;52.60;;;;;;5065423;28;20044;-69
2023/06/13 08:52:39;;;;;;;6.82;3.67;;;23.40;52.40;;;;;;5063943;28;20133;-64
2023/06/13 08:55:13;;;;;;;8.20;3.30;;;23.40;52.90;;;;;;5065943;28;20055;-70
2023/06/13 08:57:42;;;;;;;8.77;3.50;;;23.50;53.20;;;;;;5049422;28;20760;-63
2023/06/13 09:00:12;;;;;;;7.80;3.53;;;23.50;52.00;;;;;;5065318;28;20060;-65
2023/06/13 09:02:43;;;;;;;7.93;3.55;;;23.50;52.10;;;;;;5049216;28;20056;-70
2023/06/13 09:05:15;;;;;;;6.35;3.15;;;23.60;52.00;;;;;;5065725;28;20048;-69
2023/06/13 09:07:41;;;;;;;9.63;3.22;;;23.70;52.40;;;;;;5063786;28;20045;-69
2023/06/13 09:10:11;;;;;;;10.48;3.65;;;23.80;52.40;;;;;;5048664;28;20033;-68
2023/06/13 09:12:42;;;;;;;9.18;3.70;;;23.80;52.70;;;;;;5049121;28;20041;-66
2023/06/13 09:15:09;;;;;;;12.13;3.80;;;24.00;52.40;;;;;;5048934;28;20041;-67
2023/06/13 09:17:35;;;;;;;8.10;3.58;;;24.10;52.10;;;;;;5048620;28;20037;-69
2023/06/13 09:20:01;;;;;;;7.18;3.42;;;24.10;51.30;;;;;;5065080;28;20405;-66
2023/06/13 09:22:27;;;;;;;8.43;3.63;;;23.90;51.20;;;;;;5063066;28;20613;-68
2023/06/13 09:24:52;;;;;;;15.15;3.72;;;23.90;51.80;;;;;;5065560;28;20079;-70
2023/06/13 09:27:18;;;;;;;8.88;3.58;;;23.90;51.70;;;;;;5065076;28;20068;-70
2023/06/13 09:29:48;;;;;;;8.05;3.38;;;23.90;52.20;;;;;;5081507;28;20472;-68
2023/06/13 09:32:14;;;;;;;6.50;3.17;;;23.90;51.40;;;;;;5048329;28;20048;-67
2023/06/13 09:34:41;;;;;;;25.48;4.18;;;24.00;51.60;;;;;;5048398;28;20048;-71
2023/06/13 09:37:08;;;;;;;6.93;3.20;;;24.10;52.60;;;;;;5062638;28;20041;-72
2023/06/13 09:39:33;;;;;;;8.32;3.63;;;24.10;51.10;;;;;;5048604;28;20041;-66
2023/06/13 09:42:01;;;;;;;8.48;3.40;;;24.10;51.00;;;;;;5064991;28;20644;-71
2023/06/13 09:44:32;;;;;;;18.58;3.78;;;24.10;50.50;;;;;;5048575;28;20458;-71
2023/06/13 09:46:58;;;;;;;8.50;3.15;;;24.30;51.60;;;;;;5055334;28;20375;-66
2023/06/13 09:49:29;;;;;;;8.73;3.50;;;24.20;51.60;;;;;;5084884;28;20047;-67
2023/06/13 09:51:56;;;;;;;8.75;3.15;;;24.30;50.90;;;;;;5076362;28;20051;-67
2023/06/13 09:54:22;;;;;;;6.63;3.00;;;24.30;49.60;;;;;;5047939;28;20076;-69
2023/06/13 09:56:48;;;;;;;7.05;3.25;;;24.10;50.30;;;;;;5064702;28;20072;-70
2023/06/13 09:59:17;;;;;;;8.45;3.25;;;24.20;49.90;;;;;;5047474;28;20135;-69
2023/06/13 10:01:44;;;;;;;9.48;3.08;;;24.20;50.10;;;;;;5064091;28;20063;-65
2023/06/13 10:04:10;;;;;;;9.32;2.90;;;24.30;49.20;;;;;;5065000;28;20037;-67
2023/06/13 10:06:36;;;;;;;8.45;3.15;;;24.20;48.50;;;;;;5064767;28;20093;-68
2023/06/13 10:09:02;;;;;;;7.22;3.00;;;24.10;49.90;;;;;;5064568;28;20050;-65
2023/06/13 10:11:31;;;;;;;8.88;3.20;;;24.10;48.90;;;;;;5048144;28;20040;-65
2023/06/13 10:14:06;;;;;;;7.25;3.40;;;24.10;48.80;;;;;;5048397;28;20059;-64
2023/06/13 10:16:36;;;;;;;8.52;3.47;;;24.10;50.00;;;;;;5063936;28;20048;-63
2023/06/13 10:19:05;;;;;;;6.88;2.75;;;24.10;51.00;;;;;;5052285;28;20096;-71
2023/06/13 10:21:35;;;;;;;7.68;3.17;;;24.00;51.30;;;;;;5064242;28;20040;-65
2023/06/13 10:24:02;;;;;;;8.80;3.42;;;24.10;51.10;;;;;;5063554;28;20032;-71
2023/06/13 10:26:36;;;;;;;8.10;2.95;;;24.20;50.80;;;;;;5064006;28;20527;-69
2023/06/13 10:29:21;;;;;;;10.30;3.15;;;24.10;50.80;;;;;;5063729;28;20049;-67
2023/06/13 10:31:50;;;;;;;6.57;2.92;;;24.00;50.80;;;;;;5063619;28;20103;-66
2023/06/13 10:34:55;;;;;;;5.57;2.83;;;24.10;50.70;;;;;;5065344;28;20121;-64
2023/06/13 10:37:59;;;;;;;7.68;3.20;;;24.10;50.60;;;;;;5062173;28;20036;-66
2023/06/13 10:41:03;;;;;;;8.55;3.42;;;24.20;49.80;;;;;;5063624;28;20131;-66
2023/06/13 10:43:51;;;;;;;6.60;2.88;;;24.20;48.60;;;;;;5064261;28;20837;-66
2023/06/13 10:46:17;;;;;;;7.78;2.92;;;24.20;51.70;;;;;;5078042;28;20400;-65
2023/06/13 10:48:50;;;;;;;8.07;2.90;;;24.10;49.40;;;;;;5083310;28;20043;-66
2023/06/13 10:51:37;;;;;;;9.20;3.35;;;24.00;49.00;;;;;;5062184;28;20494;-65
2023/06/13 10:54:02;;;;;;;8.07;3.17;;;24.10;50.00;;;;;;5080431;28;20523;-67
2023/06/13 10:56:32;;;;;;;9.07;2.72;;;24.20;50.60;;;;;;5080761;28;20051;-66
2023/06/13 10:59:07;;;;;;;9.05;2.75;;;24.30;50.40;;;;;;5063509;28;20060;-66
2023/06/13 11:01:38;;;;;;;5.93;2.85;;;24.40;50.50;;;;;;5046580;28;20066;-67
2023/06/13 11:04:14;;;;;;;6.90;2.90;;;24.50;50.00;;;;;;5064007;28;20048;-68
2023/06/13 11:06:43;;;;;;;5.93;2.88;;;24.50;50.60;;;;;;5044893;28;20036;-63
2023/06/13 11:09:20;;;;;;;7.80;3.17;;;24.50;51.10;;;;;;5062419;28;20051;-68
2023/06/13 11:11:50;;;;;;;7.88;2.63;;;24.40;51.60;;;;;;5063752;28;20075;-66
2023/06/13 11:14:20;;;;;;;10.85;3.30;;;24.40;51.20;;;;;;5046997;28;20055;-65
2023/06/13 11:16:46;;;;;;;12.15;3.00;;;24.30;51.20;;;;;;5046089;28;20051;-66
2023/06/13 11:19:13;;;;;;;11.15;3.30;;;24.20;50.90;;;;;;5068922;28;20043;-67
2023/06/13 11:21:49;;;;;;;10.65;3.10;;;24.20;50.40;;;;;;5079461;28;20040;-66
2023/06/13 11:24:15;;;;;;;8.00;3.38;;;24.20;51.60;;;;;;5047333;28;20447;-65
2023/06/13 11:26:44;;;;;;;12.27;3.25;;;24.30;52.70;;;;;;5063739;28;20045;-67
2023/06/13 11:29:14;;;;;;;6.90;2.60;;;24.40;51.60;;;;;;5046572;28;20071;-67
2023/06/13 11:31:41;;;;;;;5.57;3.00;;;24.40;51.80;;;;;;5063343;28;20106;-68
2023/06/13 11:34:18;;;;;;;8.57;3.10;;;24.40;51.10;;;;;;5046784;28;20059;-66
2023/06/13 11:36:46;;;;;;;7.57;2.88;;;24.50;51.30;;;;;;5061448;28;20043;-64
2023/06/13 11:39:15;;;;;;;7.68;3.10;;;24.50;51.20;;;;;;5046350;28;20490;-68
2023/06/13 11:41:42;;;;;;;6.43;2.70;;;24.40;51.40;;;;;;5063168;28;20474;-67
2023/06/13 11:44:09;;;;;;;8.43;2.70;;;24.40;52.20;;;;;;5063391;28;20511;-68
2023/06/13 11:46:41;;;;;;;11.80;3.13;;;24.40;51.80;;;;;;5063636;28;20086;-66
2023/06/13 11:49:12;;;;;;;7.35;3.08;;;24.40;51.80;;;;;;5063086;28;20055;-68
2023/06/13 11:51:38;;;;;;;5.95;3.00;;;24.50;52.20;;;;;;5063249;28;20048;-66
2023/06/13 11:54:03;;;;;;;6.20;3.50;;;24.40;51.00;;;;;;5063548;28;20527;-67
2023/06/13 11:56:34;;;;;;;7.82;2.88;;;24.40;51.20;;;;;;5063061;28;20043;-65
2023/06/13 11:59:00;;;;;;;5.57;2.72;;;24.50;52.00;;;;;;5046497;28;20088;-67
2023/06/13 12:01:26;;;;;;;8.10;3.10;;;24.50;51.20;;;;;;5045861;28;20491;-67
2023/06/13 12:03:55;;;;;;;9.82;3.15;;;24.70;51.40;;;;;;5046683;28;20040;-66
2023/06/13 12:06:21;;;;;;;10.90;3.13;;;24.90;51.80;;;;;;5061832;28;20045;-67
2023/06/13 12:08:47;;;;;;;6.18;2.38;;;24.80;51.10;;;;;;5046012;28;20047;-64
2023/06/13 12:11:17;;;;;;;9.80;2.83;;;24.70;50.70;;;;;;5063132;28;20395;-63
2023/06/13 12:14:00;;;;;;;7.78;2.70;;;24.60;50.80;;;;;;5046382;28;20136;-63
2023/06/13 12:16:35;;;;;;;7.60;2.88;;;24.60;51.40;;;;;;5062686;28;20048;-65
2023/06/13 12:19:02;;;;;;;7.22;2.58;;;24.50;50.90;;;;;;5046207;28;20052;-72
2023/06/13 12:21:30;;;;;;;9.25;2.88;;;24.40;51.30;;;;;;5064733;28;20043;-65
2023/06/13 12:23:57;;;;;;;7.25;3.00;;;24.50;52.10;;;;;;5065830;28;20068;-65
2023/06/13 12:26:24;;;;;;;7.35;2.70;;;24.60;52.30;;;;;;5066384;28;20047;-66
2023/06/13 12:28:52;;;;;;;6.93;2.90;;;24.60;51.60;;;;;;5066000;28;20066;-64
2023/06/13 12:31:32;;;;;;;6.18;2.78;;;24.60;51.50;;;;;;5067627;28;20048;-66
2023/06/13 12:34:34;;;;;;;9.10;2.60;;;24.50;51.80;;;;;;5066530;28;20079;-67
2023/06/13 12:37:04;;;;;;;7.45;2.65;;;24.70;51.80;;;;;;5048741;28;20055;-66
2023/06/13 12:39:33;;;;;;;8.07;3.08;;;24.60;51.30;;;;;;5049160;28;20078;-66
2023/06/13 12:42:08;;;;;;;6.80;2.58;;;24.60;51.20;;;;;;5066044;28;20149;-68
2023/06/13 12:44:35;;;;;;;7.47;3.35;;;24.50;51.70;;;;;;5066637;28;20494;-66
2023/06/13 12:47:02;;;;;;;10.10;3.33;;;24.60;51.40;;;;;;5065261;28;20044;-63
2023/06/13 12:49:38;;;;;;;10.25;3.33;;;24.60;51.70;;;;;;5049415;28;20063;-63